Time;durP1;ratioP1;P1;durP2;ratioP2;P2;SDS_P1;SDS_P2;PMS_P1;PMS_P2;Temp;Humidity;BMP_temperature;BMP_pressure;BME280_temperature;BME280_humidity;BME280_pressure;Samples;Min_cycle;Max_cycle;Signal;HPM_P1;HPM_P2
2022/06/14 00:00:53;;;;;;;1.73;1.20;;;11.20;10.10;;;;;;5124807;27;34078;-77
2022/06/14 00:02:28;;;;;;;2.28;1.40;;;11.20;13.30;;;;;;5109895;27;34130;-76
2022/06/14 00:04:57;;;;;;;1.20;1.20;;;11.10;10.80;;;;;;5105912;27;34143;-77
2022/06/14 00:08:03;;;;;;;1.80;0.95;;;11.10;11.10;;;;;;5106369;27;36659;-78
2022/06/14 00:10:59;;;;;;;1.33;1.23;;;11.10;12.90;;;;;;5119778;27;34132;-77
2022/06/14 00:16:18;;;;;;;2.65;1.33;;;11.00;10.40;;;;;;5123787;27;54785;-77
2022/06/14 00:18:47;;;;;;;2.20;1.30;;;11.00;13.70;;;;;;5088731;27;35858;-77
2022/06/14 00:21:13;;;;;;;2.10;1.48;;;11.00;10.90;;;;;;5105254;27;34106;-78
2022/06/14 00:31:59;;;;;;;1.80;1.30;;;10.90;10.70;;;;;;5121173;27;35901;-77
2022/06/14 00:37:48;;;;;;;2.10;1.10;;;10.80;13.70;;;;;;5120845;27;34052;-77
2022/06/14 00:41:01;;;;;;;1.42;1.33;;;10.80;10.90;;;;;;5125089;27;35794;-77
2022/06/14 00:43:29;;;;;;;1.23;1.13;;;10.70;14.00;;;;;;5126464;27;34198;-77
2022/06/14 00:47:04;;;;;;;2.28;1.40;;;10.70;11.00;;;;;;5144829;27;34120;-77
2022/06/14 00:50:22;;;;;;;1.27;1.17;;;10.70;16.10;;;;;;5119764;27;34353;-76
2022/06/14 00:52:55;;;;;;;1.23;1.13;;;10.60;14.20;;;;;;5105299;27;36793;-77
2022/06/14 00:55:38;;;;;;;1.88;1.15;;;10.50;11.80;;;;;;5105806;27;34087;-77
2022/06/14 00:58:15;;;;;;;2.45;1.20;;;10.50;13.40;;;;;;5105392;27;34173;-77
2022/06/14 01:01:05;;;;;;;1.70;1.20;;;10.50;12.80;;;;;;5086574;27;34234;-76
2022/06/14 01:03:39;;;;;;;1.33;1.23;;;10.40;14.20;;;;;;5088593;28;36591;-77
2022/06/14 01:09:37;;;;;;;4.45;1.52;;;10.40;14.50;;;;;;5107154;28;34173;-76
2022/06/14 01:12:36;;;;;;;2.22;1.42;;;10.30;12.50;;;;;;5098511;27;34449;-77
2022/06/14 01:15:54;;;;;;;2.95;1.33;;;10.30;14.80;;;;;;5127153;27;36014;-76
2022/06/14 01:18:22;;;;;;;1.08;1.05;;;10.30;14.10;;;;;;5129416;27;34212;-77
2022/06/14 01:21:01;;;;;;;1.25;1.05;;;10.20;11.60;;;;;;5137579;27;34046;-77
2022/06/14 01:24:16;;;;;;;1.30;1.20;;;10.20;14.00;;;;;;5075372;27;34419;-77
2022/06/14 01:26:42;;;;;;;1.83;1.40;;;10.20;14.30;;;;;;5101032;27;35987;-77
2022/06/14 01:29:33;;;;;;;1.60;1.05;;;10.10;11.70;;;;;;5104232;28;34203;-77
2022/06/14 01:35:10;;;;;;;1.30;1.20;;;10.10;14.20;;;;;;5125105;27;35253;-77
2022/06/14 01:38:07;;;;;;;1.95;1.05;;;10.10;12.00;;;;;;5098412;27;36048;-77
2022/06/14 01:41:30;;;;;;;1.40;1.00;;;10.10;14.60;;;;;;5103884;28;34269;-77
2022/06/14 01:44:19;;;;;;;3.13;1.23;;;10.00;14.60;;;;;;5104503;28;34556;-76
2022/06/14 01:52:47;;;;;;;1.80;1.10;;;9.90;14.60;;;;;;5146073;27;34285;-77
2022/06/14 02:06:39;;;;;;;1.52;1.15;;;9.70;12.30;;;;;;5135062;27;56978;-77
2022/06/14 02:09:52;;;;;;;1.60;1.38;;;9.70;13.30;;;;;;5128254;27;34235;-77
2022/06/14 02:12:55;;;;;;;2.60;1.30;;;9.60;15.10;;;;;;5108325;27;36887;-77
2022/06/14 02:16:12;;;;;;;2.50;1.17;;;9.60;14.70;;;;;;5096582;27;34150;-77
2022/06/14 02:22:11;;;;;;;1.33;1.23;;;9.50;14.90;;;;;;5121492;27;34497;-77
2022/06/14 02:24:55;;;;;;;1.38;1.15;;;9.40;12.60;;;;;;5105389;28;34544;-77
2022/06/14 02:28:00;;;;;;;1.05;1.00;;;9.40;14.50;;;;;;5107604;27;34077;-76
2022/06/14 02:30:56;;;;;;;1.10;1.00;;;9.40;15.00;;;;;;5098846;27;34271;-77
2022/06/14 02:33:39;;;;;;;1.92;1.10;;;9.30;15.40;;;;;;5133766;27;33971;-77
2022/06/14 02:39:55;;;;;;;1.80;1.25;;;9.20;15.00;;;;;;5087493;27;34369;-77
2022/06/14 02:43:07;;;;;;;4.13;1.08;;;9.20;15.30;;;;;;5104689;28;34037;-77
2022/06/14 02:46:23;;;;;;;1.63;1.00;;;9.20;15.30;;;;;;5107817;27;34055;-77
2022/06/14 02:52:23;;;;;;;1.98;0.98;;;9.10;15.40;;;;;;5049108;28;34271;-76
2022/06/14 02:55:08;;;;;;;2.45;1.02;;;9.00;13.40;;;;;;5029029;28;34108;-76
2022/06/14 02:58:15;;;;;;;1.85;1.20;;;9.00;14.40;;;;;;5073096;27;34421;-77
2022/06/14 03:00:52;;;;;;;2.00;1.13;;;8.90;15.60;;;;;;5123956;27;35697;-76
2022/06/14 03:03:38;;;;;;;1.38;1.27;;;8.80;13.80;;;;;;5124809;27;34374;-77
2022/06/14 03:06:29;;;;;;;2.05;1.23;;;8.80;15.60;;;;;;5110806;27;34352;-76
2022/06/14 03:10:05;;;;;;;3.03;1.20;;;8.80;14.80;;;;;;5146694;27;34216;-76
2022/06/14 03:24:28;;;;;;;1.65;1.25;;;8.60;13.50;;;;;;5132099;27;60849;-76
2022/06/14 03:30:29;;;;;;;5.70;1.42;;;8.60;16.30;;;;;;5116112;27;34982;-76
2022/06/14 03:33:03;;;;;;;2.10;1.52;;;8.60;14.20;;;;;;5124110;27;34225;-77
2022/06/14 03:38:14;;;;;;;2.90;1.35;;;8.60;15.30;;;;;;5115291;27;57604;-76
2022/06/14 03:40:58;;;;;;;0.98;0.98;;;8.60;14.40;;;;;;5099883;28;34220;-76
2022/06/14 03:43:25;;;;;;;3.38;1.20;;;8.60;16.30;;;;;;5100544;28;34502;-76
2022/06/14 03:46:30;;;;;;;1.50;1.30;;;8.60;14.00;;;;;;5104617;27;35569;-76
2022/06/14 03:52:46;;;;;;;1.20;1.10;;;8.60;16.80;;;;;;5100188;28;33980;-77
2022/06/14 04:05:54;;;;;;;1.33;1.10;;;8.60;17.10;;;;;;5087942;28;34410;-76
2022/06/14 04:11:54;;;;;;;1.67;1.23;;;8.60;16.60;;;;;;5041320;28;34194;-76
2022/06/14 04:14:58;;;;;;;2.63;1.30;;;8.60;14.60;;;;;;5024628;28;34670;-76
2022/06/14 04:18:01;;;;;;;1.83;1.10;;;8.60;16.30;;;;;;5035592;28;34367;-77
2022/06/14 04:26:23;;;;;;;1.50;1.30;;;8.60;14.80;;;;;;5040158;28;34235;-77
2022/06/14 04:29:13;;;;;;;4.65;1.27;;;8.60;16.50;;;;;;5040205;28;34116;-77
2022/06/14 04:37:32;;;;;;;1.48;1.10;;;8.80;14.30;;;;;;5095204;28;55947;-76
2022/06/14 04:40:26;;;;;;;1.52;1.42;;;8.80;14.80;;;;;;5107240;28;34111;-77
2022/06/14 04:43:38;;;;;;;1.25;0.95;;;8.90;17.40;;;;;;5089114;28;34290;-77
2022/06/14 04:57:05;;;;;;;2.00;1.17;;;9.10;14.50;;;;;;5099238;28;61540;-77
2022/06/14 05:02:09;;;;;;;2.72;1.77;;;9.20;14.50;;;;;;5094551;27;57170;-77
2022/06/14 05:05:06;;;;;;;3.47;1.42;;;9.30;15.80;;;;;;5078655;27;34896;-77
2022/06/14 05:07:42;;;;;;;1.88;1.15;;;9.40;18.20;;;;;;5074046;28;35766;-77
2022/06/14 05:10:34;;;;;;;4.03;1.70;;;9.40;15.10;;;;;;5082164;28;34560;-77
2022/06/14 05:13:09;;;;;;;1.80;1.60;;;9.60;17.70;;;;;;5072321;28;34161;-78
2022/06/14 05:15:47;;;;;;;5.30;1.50;;;9.60;14.90;;;;;;5083233;28;34415;-77
2022/06/14 05:21:55;;;;;;;2.80;1.73;;;10.30;17.90;;;;;;5088296;27;33760;-78
2022/06/14 05:24:23;;;;;;;1.95;1.58;;;11.00;17.50;;;;;;5103954;27;34464;-77
2022/06/14 05:27:19;;;;;;;2.33;1.60;;;12.20;12.80;;;;;;5108254;27;34551;-78
2022/06/14 05:30:12;;;;;;;4.45;1.60;;;13.50;13.50;;;;;;5107068;27;35815;-78
2022/06/14 05:33:09;;;;;;;3.38;1.52;;;14.80;9.50;;;;;;5083893;28;34233;-77
2022/06/14 05:35:58;;;;;;;2.30;1.50;;;16.00;8.30;;;;;;5105406;28;34186;-78
2022/06/14 05:38:36;;;;;;;1.25;1.15;;;17.00;6.80;;;;;;5107374;27;34412;-78
2022/06/14 05:41:06;;;;;;;3.72;1.58;;;17.90;4.40;;;;;;5125382;27;34402;-78
2022/06/14 05:44:12;;;;;;;3.42;1.20;;;18.70;3.40;;;;;;5081659;28;34400;-79
2022/06/14 05:47:09;;;;;;;6.45;1.23;;;19.60;2.10;;;;;;5102890;27;34120;-78
2022/06/14 05:49:43;;;;;;;2.35;1.10;;;20.30;1.00;;;;;;5125419;27;34050;-78
2022/06/14 05:52:33;;;;;;;2.75;1.58;;;20.80;1.00;;;;;;5090366;28;36121;-79
2022/06/14 05:55:30;;;;;;;1.15;1.05;;;21.30;1.00;;;;;;5089241;28;34221;-79
2022/06/14 05:58:08;;;;;;;2.40;1.10;;;21.90;1.00;;;;;;5096499;27;34605;-79
2022/06/14 06:01:29;;;;;;;3.60;1.13;;;22.30;1.00;;;;;;5125672;27;34012;-80
2022/06/14 06:04:14;;;;;;;1.60;0.93;;;22.90;1.00;;;;;;5078682;27;36050;-79
2022/06/14 06:06:45;;;;;;;3.00;1.13;;;23.20;1.00;;;;;;5102594;28;34203;-79
2022/06/14 06:09:20;;;;;;;1.90;1.00;;;23.50;1.00;;;;;;5092905;28;34216;-79
2022/06/14 06:11:55;;;;;;;3.58;1.20;;;23.80;1.00;;;;;;5103487;27;34399;-79
2022/06/14 06:14:35;;;;;;;3.65;1.70;;;24.10;1.00;;;;;;5110490;27;36623;-79
2022/06/14 06:17:24;;;;;;;3.60;1.10;;;24.40;1.00;;;;;;5114328;27;34205;-79
2022/06/14 06:20:09;;;;;;;6.05;1.10;;;24.70;1.00;;;;;;5092641;27;34493;-78
2022/06/14 06:23:04;;;;;;;3.70;1.20;;;24.90;1.00;;;;;;5095706;27;34101;-78
2022/06/14 06:25:48;;;;;;;3.28;1.10;;;25.20;1.00;;;;;;5095350;27;35698;-79
2022/06/14 06:28:31;;;;;;;1.80;0.90;;;25.30;1.00;;;;;;5128069;27;34402;-78
2022/06/14 06:31:23;;;;;;;3.75;1.10;;;25.40;1.00;;;;;;5110365;27;34135;-79
2022/06/14 06:34:11;;;;;;;3.22;1.50;;;25.60;1.00;;;;;;5113215;27;34154;-79
2022/06/14 06:36:57;;;;;;;1.63;1.10;;;25.70;1.00;;;;;;5090206;27;36514;-79
2022/06/14 06:48:13;;;;;;;4.40;1.10;;;26.40;1.00;;;;;;5131489;27;33610;-80
2022/06/14 06:51:34;;;;;;;5.53;1.33;;;26.50;1.00;;;;;;5113691;27;34324;-81
2022/06/14 06:54:20;;;;;;;2.78;1.20;;;26.70;1.00;;;;;;5111597;27;34209;-80
2022/06/14 06:57:07;;;;;;;4.45;1.00;;;26.80;1.00;;;;;;5109972;27;33993;-81
2022/06/14 06:59:39;;;;;;;1.90;1.15;;;27.20;1.00;;;;;;5116671;27;35688;-82
2022/06/14 07:02:56;;;;;;;1.00;0.90;;;27.30;1.00;;;;;;5084803;28;34356;-79
2022/06/14 07:07:55;;;;;;;2.75;1.20;;;27.30;1.00;;;;;;5112136;27;53938;-84
2022/06/14 07:10:37;;;;;;;3.45;1.30;;;27.50;1.00;;;;;;5112479;27;36007;-80
2022/06/14 07:13:24;;;;;;;4.13;1.52;;;27.60;1.00;;;;;;5103726;27;34414;-80
2022/06/14 07:16:25;;;;;;;2.28;1.08;;;27.60;1.00;;;;;;5117802;27;34121;-81
2022/06/14 07:22:17;;;;;;;2.42;0.80;;;27.30;1.00;;;;;;5103069;27;34184;-79
2022/06/14 07:25:23;;;;;;;3.05;1.10;;;27.40;1.00;;;;;;5103199;28;34308;-82
2022/06/14 07:27:58;;;;;;;3.58;1.27;;;27.50;1.00;;;;;;5121187;27;34141;-82
2022/06/14 07:33:53;;;;;;;2.45;1.20;;;27.80;1.00;;;;;;5085670;28;34363;-80
2022/06/14 07:36:30;;;;;;;4.72;1.38;;;27.80;1.00;;;;;;5103850;27;34497;-84
2022/06/14 07:39:45;;;;;;;2.55;1.00;;;27.70;1.00;;;;;;5110521;27;34377;-81
2022/06/14 07:42:52;;;;;;;2.38;1.20;;;27.80;1.00;;;;;;5105963;27;34299;-78
2022/06/14 07:45:37;;;;;;;2.97;1.20;;;27.90;1.00;;;;;;5062977;28;36911;-81
2022/06/14 07:48:45;;;;;;;4.30;1.30;;;28.10;1.00;;;;;;5064719;28;34234;-79
2022/06/14 07:51:58;;;;;;;4.15;1.00;;;28.40;1.00;;;;;;5058734;28;34341;-81
2022/06/14 08:03:01;;;;;;;2.80;1.52;;;28.40;1.00;;;;;;5100062;23;34276;-80
2022/06/14 08:12:21;;;;;;;1.55;0.75;;;28.60;1.00;;;;;;4995140;28;34022;-82
2022/06/14 08:15:22;;;;;;;2.45;1.00;;;28.70;1.00;;;;;;4989410;28;35917;-81
2022/06/14 08:18:13;;;;;;;3.83;1.10;;;28.60;1.00;;;;;;4946243;28;34259;-83
2022/06/14 08:20:51;;;;;;;3.67;1.25;;;28.70;1.00;;;;;;4983868;28;34106;-81
2022/06/14 08:23:57;;;;;;;2.50;0.60;;;28.60;1.00;;;;;;4967676;28;34200;-80
2022/06/14 08:26:48;;;;;;;3.10;1.00;;;28.90;1.00;;;;;;4971956;28;34162;-82
2022/06/14 08:29:45;;;;;;;2.17;0.90;;;28.60;1.00;;;;;;4966066;28;34817;-80
2022/06/14 08:38:39;;;;;;;0.77;0.70;;;28.30;1.00;;;;;;4929104;28;34173;-83
2022/06/14 08:41:32;;;;;;;3.45;0.88;;;28.40;1.00;;;;;;4923530;28;34024;-79
2022/06/14 08:44:36;;;;;;;0.60;0.60;;;28.50;1.00;;;;;;4946091;28;35593;-81
2022/06/14 08:47:40;;;;;;;1.55;1.00;;;28.50;1.00;;;;;;4968838;28;34304;-82
2022/06/14 08:53:56;;;;;;;1.60;0.90;;;28.50;1.00;;;;;;4980409;28;35042;-81
2022/06/14 09:02:58;;;;;;;1.15;0.80;;;29.10;1.00;;;;;;4984039;28;56010;-82
2022/06/14 09:05:43;;;;;;;1.27;1.00;;;29.20;1.00;;;;;;4967989;28;34808;-83
2022/06/14 09:11:40;;;;;;;2.58;0.70;;;29.30;1.00;;;;;;4986208;28;34722;-80
2022/06/14 09:14:30;;;;;;;2.92;0.88;;;29.10;1.00;;;;;;4964408;28;34179;-82
2022/06/14 09:17:38;;;;;;;1.58;0.60;;;29.00;1.00;;;;;;4954904;28;34165;-80
2022/06/14 09:23:43;;;;;;;3.40;0.75;;;28.80;1.00;;;;;;4983483;28;34168;-80
2022/06/14 09:26:43;;;;;;;1.20;0.85;;;28.80;1.00;;;;;;4977025;28;33759;-81
2022/06/14 09:29:46;;;;;;;1.35;0.88;;;28.80;1.00;;;;;;4976076;28;34110;-81
2022/06/14 09:36:02;;;;;;;1.60;0.85;;;28.60;1.00;;;;;;4969842;28;34218;-82
2022/06/14 09:41:30;;;;;;;2.30;1.17;;;28.80;1.00;;;;;;4987644;28;54961;-81
2022/06/14 09:44:16;;;;;;;2.13;1.20;;;28.90;1.00;;;;;;4948363;28;36543;-78
2022/06/14 09:47:14;;;;;;;5.00;1.20;;;29.10;1.00;;;;;;4975004;28;34259;-78
2022/06/14 09:50:00;;;;;;;0.90;0.80;;;29.10;1.00;;;;;;4944923;28;34324;-78
2022/06/14 09:52:52;;;;;;;1.85;0.90;;;29.10;1.00;;;;;;4968097;28;34180;-79
2022/06/14 09:55:53;;;;;;;1.48;0.90;;;29.10;1.00;;;;;;4969638;28;34497;-79
2022/06/14 09:58:52;;;;;;;1.73;1.08;;;29.30;1.00;;;;;;4952006;28;34113;-79
2022/06/14 10:01:38;;;;;;;3.50;0.88;;;29.20;1.00;;;;;;4959592;28;34183;-79
2022/06/14 10:04:53;;;;;;;3.95;0.80;;;29.20;1.00;;;;;;4969231;28;34467;-79
2022/06/14 10:07:53;;;;;;;1.02;0.93;;;29.30;1.00;;;;;;4969562;28;35879;-78
2022/06/14 10:10:36;;;;;;;1.88;1.20;;;29.40;1.00;;;;;;4968231;28;34223;-80
2022/06/14 10:16:33;;;;;;;1.90;0.90;;;29.30;1.00;;;;;;4983635;28;34264;-79
2022/06/14 10:19:22;;;;;;;1.70;1.02;;;29.30;1.00;;;;;;4948823;28;35894;-78
2022/06/14 10:29:17;;;;;;;2.42;0.90;;;29.70;1.00;;;;;;4981229;28;35115;-78
2022/06/14 10:36:02;;;;;;;1.23;0.80;;;29.60;1.00;;;;;;4967807;28;35843;-78
2022/06/14 10:39:11;;;;;;;1.60;0.98;;;29.50;1.00;;;;;;4959853;28;34720;-79
2022/06/14 10:42:23;;;;;;;1.42;0.55;;;29.60;1.00;;;;;;4945035;28;34209;-80
2022/06/14 10:45:44;;;;;;;1.42;0.70;;;29.70;1.00;;;;;;4926578;28;36525;-79
2022/06/14 10:49:02;;;;;;;1.33;0.80;;;29.80;1.00;;;;;;4964986;28;34316;-80
2022/06/14 10:55:32;;;;;;;1.88;0.90;;;29.80;1.00;;;;;;4981568;28;34214;-78
2022/06/14 10:58:25;;;;;;;1.83;0.93;;;29.90;1.00;;;;;;4950483;28;36728;-77
2022/06/14 11:01:26;;;;;;;1.05;0.70;;;29.80;1.00;;;;;;4930628;28;34242;-79
2022/06/14 11:07:53;;;;;;;1.05;0.75;;;29.80;1.00;;;;;;4968658;28;34295;-77
2022/06/14 11:10:56;;;;;;;2.38;0.80;;;29.80;1.00;;;;;;4955743;28;35977;-78
2022/06/14 11:14:07;;;;;;;1.33;0.73;;;29.90;1.00;;;;;;4970162;28;33807;-78
2022/06/14 11:17:12;;;;;;;1.25;0.77;;;30.00;1.00;;;;;;4981823;28;34331;-76
2022/06/14 11:34:16;;;;;;;1.90;0.90;;;29.80;1.00;;;;;;4982619;28;33756;-78
2022/06/14 11:37:23;;;;;;;1.45;0.80;;;29.80;1.00;;;;;;4980006;28;35013;-79
2022/06/14 11:40:08;;;;;;;3.78;0.90;;;30.00;1.00;;;;;;4956429;28;34097;-80
2022/06/14 11:43:22;;;;;;;0.80;0.70;;;30.00;1.00;;;;;;4963771;28;34245;-75
2022/06/14 11:58:24;;;;;;;4.03;1.17;;;30.20;1.00;;;;;;4927387;29;34440;-78
2022/06/14 12:01:31;;;;;;;0.70;0.70;;;30.20;1.00;;;;;;4911282;29;36797;-78
2022/06/14 12:14:27;;;;;;;1.33;0.77;;;30.00;1.00;;;;;;4959844;28;34341;-78
2022/06/14 12:17:37;;;;;;;1.23;0.75;;;30.10;1.00;;;;;;4946401;28;34062;-78
2022/06/14 12:20:35;;;;;;;2.97;0.80;;;30.20;1.00;;;;;;4968276;28;33825;-79
2022/06/14 12:23:10;;;;;;;1.48;1.00;;;30.30;1.00;;;;;;4926371;28;34167;-78
2022/06/14 12:29:23;;;;;;;4.82;1.00;;;30.30;1.00;;;;;;4946957;28;34348;-80
2022/06/14 12:32:35;;;;;;;1.98;0.75;;;30.50;1.00;;;;;;4931714;28;34305;-77
2022/06/14 12:35:14;;;;;;;1.00;0.63;;;30.60;1.00;;;;;;4949996;28;34180;-79
2022/06/14 12:38:01;;;;;;;1.15;0.80;;;30.70;1.00;;;;;;4930288;28;35737;-78
2022/06/14 12:40:44;;;;;;;1.33;0.70;;;30.70;1.00;;;;;;4912537;28;34192;-78
2022/06/14 12:49:17;;;;;;;1.77;0.80;;;30.20;1.00;;;;;;4971754;28;62522;-77
2022/06/14 12:52:18;;;;;;;1.50;0.70;;;30.10;1.00;;;;;;4947683;28;34276;-77
2022/06/14 12:58:30;;;;;;;0.80;0.80;;;30.10;1.00;;;;;;4969570;28;34275;-82
2022/06/14 13:01:11;;;;;;;1.73;0.70;;;30.20;1.00;;;;;;4961161;28;34571;-79
2022/06/14 13:03:53;;;;;;;2.80;1.10;;;30.40;1.00;;;;;;4960670;28;35717;-78
2022/06/14 13:15:28;;;;;;;4.80;0.90;;;30.80;1.00;;;;;;4989161;28;34379;-78
2022/06/14 13:21:25;;;;;;;1.92;0.80;;;31.10;1.00;;;;;;4948275;28;34242;-78
2022/06/14 13:24:38;;;;;;;2.83;0.88;;;31.10;1.00;;;;;;4931540;28;35635;-78
2022/06/14 13:27:36;;;;;;;1.55;0.75;;;31.00;1.00;;;;;;4968419;28;34462;-79
2022/06/14 13:30:21;;;;;;;1.40;0.70;;;30.80;1.00;;;;;;4969842;28;34339;-79
2022/06/14 13:33:00;;;;;;;3.00;0.70;;;30.90;1.00;;;;;;4988189;28;34160;-79
2022/06/14 13:35:57;;;;;;;1.10;0.98;;;31.00;1.00;;;;;;4973831;28;36844;-78
2022/06/14 13:38:47;;;;;;;2.78;0.80;;;31.00;1.00;;;;;;4971731;28;34171;-78
2022/06/14 13:49:31;;;;;;;1.77;0.70;;;30.90;1.00;;;;;;4963415;28;33899;-77
2022/06/14 13:52:10;;;;;;;1.80;0.65;;;30.90;1.00;;;;;;4985780;28;34215;-79
2022/06/14 13:55:08;;;;;;;1.65;0.77;;;30.80;1.00;;;;;;4984872;28;34281;-78
2022/06/14 13:57:47;;;;;;;1.48;0.70;;;30.70;1.00;;;;;;4957354;28;36273;-79
2022/06/14 14:00:43;;;;;;;1.35;0.80;;;30.80;1.00;;;;;;4959277;28;34225;-78
2022/06/14 14:03:33;;;;;;;1.63;0.90;;;30.80;1.00;;;;;;4961834;28;34344;-77
2022/06/14 14:06:44;;;;;;;6.05;0.75;;;30.90;1.00;;;;;;4945851;28;34338;-77
2022/06/14 14:10:07;;;;;;;1.52;0.65;;;30.90;1.00;;;;;;4967527;28;36089;-81
2022/06/14 14:12:42;;;;;;;2.45;0.60;;;31.00;1.00;;;;;;4951842;28;34336;-77
2022/06/14 14:15:31;;;;;;;1.13;0.70;;;31.00;1.00;;;;;;4964061;28;34303;-78
2022/06/14 14:18:20;;;;;;;1.42;0.73;;;30.90;1.00;;;;;;4958632;28;34570;-76
2022/06/14 14:21:16;;;;;;;3.35;0.70;;;31.00;1.00;;;;;;4967139;28;35778;-76
2022/06/14 14:24:39;;;;;;;3.97;0.93;;;30.90;1.00;;;;;;4964996;28;34624;-77
2022/06/14 14:37:39;;;;;;;1.02;0.68;;;30.60;1.00;;;;;;4973411;28;34693;-78
2022/06/14 14:40:25;;;;;;;0.80;0.80;;;30.60;1.00;;;;;;4986375;28;34387;-79
2022/06/14 14:43:02;;;;;;;0.98;0.73;;;30.50;1.00;;;;;;4970610;28;34223;-80
2022/06/14 14:45:46;;;;;;;3.35;0.90;;;30.60;1.00;;;;;;4963535;28;34442;-78
2022/06/14 14:48:23;;;;;;;1.05;0.70;;;30.60;1.00;;;;;;4958389;28;36461;-77
2022/06/14 14:54:21;;;;;;;2.67;0.70;;;30.70;1.00;;;;;;4927395;28;33838;-77
2022/06/14 14:57:26;;;;;;;1.85;0.80;;;30.60;1.00;;;;;;4947493;28;34407;-77
2022/06/14 15:00:00;;;;;;;1.65;0.70;;;30.50;1.00;;;;;;4970124;28;35684;-77
2022/06/14 15:05:55;;;;;;;1.52;0.80;;;30.50;1.00;;;;;;4978510;28;33836;-79
2022/06/14 15:08:42;;;;;;;2.10;0.70;;;30.70;1.00;;;;;;4963857;28;34271;-77
2022/06/14 15:11:26;;;;;;;1.35;0.80;;;30.80;1.00;;;;;;4965496;28;35816;-80
2022/06/14 15:13:55;;;;;;;2.58;0.88;;;30.70;1.00;;;;;;4982059;28;33569;-79
2022/06/14 15:16:26;;;;;;;0.88;0.68;;;30.60;1.00;;;;;;4978694;28;34323;-77
2022/06/14 15:22:18;;;;;;;2.33;0.60;;;30.60;1.00;;;;;;4945641;28;34332;-76
2022/06/14 15:26:13;;;;;;;3.13;0.80;;;30.50;1.00;;;;;;5143950;27;34249;-76
2022/06/14 15:28:49;;;;;;;0.85;0.60;;;30.70;1.00;;;;;;5108643;27;34207;-80
2022/06/14 15:32:08;;;;;;;1.85;0.80;;;30.70;1.00;;;;;;5130454;27;34479;-80
2022/06/14 15:34:57;;;;;;;2.08;0.68;;;30.60;1.00;;;;;;5091087;27;35795;-80
2022/06/14 15:37:34;;;;;;;2.55;0.75;;;30.50;1.00;;;;;;5100551;27;34297;-82
2022/06/14 15:40:25;;;;;;;2.00;0.77;;;30.60;1.00;;;;;;5124675;27;34358;-80
2022/06/14 15:43:21;;;;;;;1.15;0.77;;;30.50;1.00;;;;;;5086709;27;34375;-79
2022/06/14 15:45:53;;;;;;;1.15;0.80;;;30.50;1.00;;;;;;5105384;27;36405;-79
2022/06/14 15:51:34;;;;;;;3.53;0.90;;;30.40;1.00;;;;;;5120571;27;33686;-80
2022/06/14 15:54:58;;;;;;;1.30;0.70;;;30.30;1.00;;;;;;5103926;28;34340;-80
2022/06/14 15:57:49;;;;;;;3.03;0.75;;;30.30;1.00;;;;;;5076348;28;36595;-80
2022/06/14 16:00:27;;;;;;;2.20;0.70;;;30.30;1.00;;;;;;5111395;27;34144;-80
2022/06/14 16:03:14;;;;;;;1.30;0.88;;;30.40;1.00;;;;;;5096495;27;34574;-77
2022/06/14 16:06:06;;;;;;;0.70;0.70;;;30.40;1.00;;;;;;5070538;27;34155;-77
2022/06/14 16:08:36;;;;;;;1.08;0.63;;;30.40;1.00;;;;;;5090321;27;35817;-78
2022/06/14 16:11:39;;;;;;;2.38;0.90;;;30.30;1.00;;;;;;5094618;27;34288;-78
2022/06/14 16:14:21;;;;;;;1.33;0.77;;;30.10;1.00;;;;;;5102989;28;34159;-78
2022/06/14 16:17:04;;;;;;;4.50;0.70;;;30.00;1.00;;;;;;5090346;27;34187;-79
2022/06/14 16:24:59;;;;;;;1.92;0.60;;;29.80;1.00;;;;;;5104731;27;56057;-78
2022/06/14 16:31:25;;;;;;;1.15;0.65;;;29.70;1.00;;;;;;5115667;27;34569;-79
2022/06/14 16:34:02;;;;;;;1.95;0.93;;;29.60;1.00;;;;;;5082019;27;34388;-78
2022/06/14 16:36:57;;;;;;;2.38;0.80;;;29.60;1.00;;;;;;5094363;27;34213;-78
2022/06/14 16:39:50;;;;;;;2.30;0.65;;;29.60;1.00;;;;;;5090486;28;34221;-79
2022/06/14 16:42:27;;;;;;;0.75;0.73;;;29.70;1.00;;;;;;5090079;28;35496;-80
2022/06/14 16:45:04;;;;;;;1.55;0.73;;;29.80;1.00;;;;;;5085398;28;34306;-78
2022/06/14 16:48:14;;;;;;;1.77;0.80;;;29.70;1.00;;;;;;5092379;28;34274;-82
2022/06/14 16:51:04;;;;;;;0.82;0.77;;;29.60;1.00;;;;;;5084736;28;34535;-79
2022/06/14 16:54:05;;;;;;;1.40;0.73;;;29.50;1.00;;;;;;5089719;28;34383;-79
2022/06/14 16:56:39;;;;;;;1.15;0.80;;;29.40;1.00;;;;;;5084340;28;33864;-81
2022/06/14 16:59:26;;;;;;;2.00;0.82;;;29.30;1.00;;;;;;5088638;28;34231;-79
2022/06/14 17:02:35;;;;;;;1.30;0.70;;;29.20;1.00;;;;;;5088313;28;35029;-79
2022/06/14 17:05:23;;;;;;;1.38;0.90;;;29.10;1.00;;;;;;5079549;27;36557;-81
2022/06/14 17:08:00;;;;;;;1.55;1.08;;;29.10;1.00;;;;;;5084297;28;34134;-79
2022/06/14 17:10:37;;;;;;;2.65;0.82;;;29.10;1.00;;;;;;5072815;28;34979;-79
2022/06/14 17:17:15;;;;;;;2.42;1.15;;;29.00;1.00;;;;;;5115265;27;35659;-79
2022/06/14 17:30:47;;;;;;;0.70;0.70;;;28.50;1.00;;;;;;5071451;28;34223;-79
2022/06/14 17:33:47;;;;;;;1.02;0.57;;;28.40;1.00;;;;;;5105489;27;33841;-79
2022/06/14 17:36:27;;;;;;;1.05;0.80;;;28.20;1.00;;;;;;5101528;27;34106;-79
2022/06/14 17:39:41;;;;;;;1.73;0.73;;;28.10;1.00;;;;;;5071351;28;35636;-79
2022/06/14 17:42:20;;;;;;;1.52;0.80;;;27.90;1.00;;;;;;5109163;27;34133;-79
2022/06/14 17:45:13;;;;;;;1.00;0.70;;;27.80;1.00;;;;;;5112466;27;34196;-80
2022/06/14 17:48:00;;;;;;;1.95;0.88;;;27.70;1.00;;;;;;5070913;28;34290;-79
2022/06/14 17:50:53;;;;;;;1.90;1.08;;;27.50;1.00;;;;;;5077028;28;36540;-79
2022/06/14 17:53:40;;;;;;;0.93;0.75;;;27.40;1.00;;;;;;5080796;28;34180;-79
2022/06/14 17:56:52;;;;;;;0.70;0.70;;;27.20;1.00;;;;;;5089242;28;33839;-79
2022/06/14 17:59:32;;;;;;;2.05;0.75;;;27.00;1.00;;;;;;5086195;28;34526;-79
2022/06/14 18:02:14;;;;;;;0.82;0.75;;;26.90;1.00;;;;;;5097781;27;34688;-79
2022/06/14 18:04:52;;;;;;;1.20;0.70;;;26.80;1.00;;;;;;5081635;28;34377;-79
2022/06/14 18:07:44;;;;;;;3.70;0.82;;;26.70;1.00;;;;;;5081990;28;34566;-79
2022/06/14 18:17:15;;;;;;;1.20;0.93;;;26.40;1.00;;;;;;5105237;27;34160;-80
2022/06/14 18:23:09;;;;;;;3.35;0.90;;;26.20;1.00;;;;;;5118910;27;34201;-79
2022/06/14 18:34:01;;;;;;;1.23;1.13;;;25.80;1.00;;;;;;5106586;27;53933;-79
2022/06/14 18:36:57;;;;;;;1.02;0.80;;;25.70;1.00;;;;;;5072557;28;35807;-78
2022/06/14 18:42:56;;;;;;;4.45;1.10;;;25.40;1.00;;;;;;5092342;27;33807;-78
2022/06/14 18:45:36;;;;;;;2.38;0.98;;;25.30;1.00;;;;;;5094801;27;34497;-79
2022/06/14 18:48:56;;;;;;;2.17;0.90;;;25.20;1.00;;;;;;5083707;28;35951;-79
2022/06/14 18:52:05;;;;;;;1.00;1.00;;;25.10;1.00;;;;;;5091421;28;35065;-79
2022/06/14 18:55:18;;;;;;;1.40;0.90;;;24.90;1.00;;;;;;5080600;28;34460;-80
2022/06/14 18:58:14;;;;;;;5.18;1.02;;;24.70;1.00;;;;;;5091555;27;34245;-79
2022/06/14 19:00:56;;;;;;;1.55;0.73;;;24.50;1.00;;;;;;5045975;28;35892;-79
2022/06/14 19:06:45;;;;;;;2.00;1.00;;;24.30;1.00;;;;;;5125779;27;56038;-79
2022/06/14 19:13:11;;;;;;;6.13;1.15;;;24.10;1.00;;;;;;5123723;27;33842;-80
2022/06/14 19:16:21;;;;;;;2.70;0.82;;;23.90;1.00;;;;;;5123452;27;34462;-79
2022/06/14 19:19:22;;;;;;;4.03;1.02;;;23.80;1.00;;;;;;5093525;28;34371;-80
2022/06/14 19:22:25;;;;;;;4.38;1.10;;;23.60;1.00;;;;;;5119716;27;33928;-79
2022/06/14 19:25:32;;;;;;;1.00;0.90;;;23.50;1.00;;;;;;5103192;27;35978;-79
2022/06/14 19:28:24;;;;;;;1.40;0.80;;;23.30;1.00;;;;;;5128613;27;34220;-79
2022/06/14 19:31:11;;;;;;;4.55;0.98;;;23.20;1.00;;;;;;5107767;27;34814;-80
2022/06/14 19:33:48;;;;;;;0.80;0.80;;;23.00;1.00;;;;;;5129965;27;34667;-80
2022/06/14 19:36:41;;;;;;;6.07;1.10;;;22.90;1.00;;;;;;5106143;27;34359;-79
2022/06/14 19:39:20;;;;;;;3.13;1.10;;;22.70;1.00;;;;;;5108292;27;34427;-79
2022/06/14 19:41:54;;;;;;;1.35;1.13;;;22.60;1.00;;;;;;5087331;27;34354;-78
2022/06/14 19:45:08;;;;;;;1.00;1.00;;;22.50;1.00;;;;;;5129431;27;34111;-80
2022/06/14 19:47:45;;;;;;;1.42;0.90;;;22.30;1.00;;;;;;5124448;27;35907;-79
2022/06/14 19:50:41;;;;;;;1.27;1.05;;;22.10;1.00;;;;;;5119177;27;34116;-80
2022/06/14 19:53:27;;;;;;;2.10;0.90;;;22.00;1.00;;;;;;5091895;27;34640;-79
2022/06/14 20:01:36;;;;;;;2.17;1.02;;;21.60;1.00;;;;;;5143914;27;34209;-80
2022/06/14 20:04:21;;;;;;;0.77;0.77;;;21.40;1.00;;;;;;5109361;27;34314;-81
2022/06/14 20:07:00;;;;;;;3.67;0.90;;;21.20;1.00;;;;;;5104589;27;33890;-81
2022/06/14 20:09:33;;;;;;;3.40;1.23;;;21.00;1.00;;;;;;5107760;27;35816;-80
2022/06/14 20:12:20;;;;;;;6.63;1.08;;;20.90;1.00;;;;;;5130615;27;34320;-80
2022/06/14 20:15:05;;;;;;;2.75;1.33;;;20.80;1.00;;;;;;5128481;27;34170;-79
2022/06/14 20:17:53;;;;;;;1.67;1.10;;;20.70;1.00;;;;;;5106505;27;34080;-80
2022/06/14 20:21:05;;;;;;;4.03;1.85;;;20.50;1.00;;;;;;5111956;27;35514;-79
2022/06/14 20:26:53;;;;;;;3.50;1.23;;;20.20;1.70;;;;;;5131112;27;34171;-80
2022/06/14 20:29:52;;;;;;;1.08;0.95;;;19.90;1.00;;;;;;5114141;27;34229;-78
2022/06/14 20:33:04;;;;;;;1.35;0.98;;;19.80;2.40;;;;;;5049151;28;36096;-79
2022/06/14 20:36:09;;;;;;;2.85;1.52;;;19.70;2.60;;;;;;5030140;28;34205;-79
2022/06/14 20:41:04;;;;;;;5.10;1.10;;;19.40;1.00;;;;;;5105464;27;54023;-80
2022/06/14 20:43:32;;;;;;;2.97;1.20;;;19.30;1.00;;;;;;5113083;27;35906;-79